createdAt,value
2016-12-22T00:00:11.995Z,18.57
2016-12-22T00:00:52.630Z,18.54
2016-12-22T00:01:33.298Z,18.55
2016-12-22T00:02:13.939Z,18.55
2016-12-22T00:02:54.591Z,18.61
2016-12-22T00:03:35.231Z,18.5
2016-12-22T00:04:15.883Z,18.54
2016-12-22T00:04:56.522Z,18.47
2016-12-22T00:05:37.256Z,18.5
2016-12-22T00:06:17.892Z,18.49
2016-12-22T00:06:58.568Z,18.47
2016-12-22T00:07:39.177Z,18.47
2016-12-22T00:08:19.815Z,18.43
2016-12-22T00:09:00.575Z,18.42
2016-12-22T00:09:41.215Z,18.5
2016-12-22T00:10:21.858Z,18.43
2016-12-22T00:11:02.529Z,18.52
2016-12-22T00:11:43.183Z,18.5
2016-12-22T00:12:23.846Z,18.54
2016-12-22T00:13:04.485Z,18.46
2016-12-22T00:13:45.134Z,18.5
2016-12-22T00:14:25.790Z,18.5
2016-12-22T00:15:06.437Z,18.44
2016-12-22T00:15:47.087Z,18.49
2016-12-22T00:16:27.846Z,18.47
2016-12-22T00:17:08.489Z,18.43
2016-12-22T00:17:49.161Z,18.4
2016-12-22T00:18:29.823Z,18.4
2016-12-22T00:19:10.564Z,18.42
2016-12-22T00:19:51.247Z,18.42
2016-12-22T00:20:31.887Z,18.4
2016-12-22T00:21:12.530Z,18.55
2016-12-22T00:21:53.165Z,18.46
2016-12-22T00:22:33.799Z,18.37
2016-12-22T00:23:14.545Z,18.42
2016-12-22T00:23:55.211Z,18.4
2016-12-22T00:24:35.845Z,18.37
2016-12-22T00:25:16.539Z,18.46
2016-12-22T00:25:57.183Z,18.39
2016-12-22T00:26:37.907Z,18.44
2016-12-22T00:27:18.563Z,18.44
2016-12-22T00:27:59.209Z,18.43
2016-12-22T00:28:39.858Z,18.47
2016-12-22T00:29:20.498Z,18.44
2016-12-22T00:30:01.137Z,18.37
2016-12-22T00:30:41.882Z,18.43
2016-12-22T00:31:22.529Z,18.46
2016-12-22T00:32:03.244Z,18.4
2016-12-22T00:32:43.883Z,18.47
2016-12-22T00:33:24.569Z,18.36
2016-12-22T00:34:05.217Z,18.44
2016-12-22T00:34:45.852Z,18.4
2016-12-22T00:35:26.490Z,18.36
2016-12-22T00:36:07.146Z,18.39
2016-12-22T00:36:47.798Z,18.37
2016-12-22T00:37:28.448Z,18.37
2016-12-22T00:38:09.104Z,18.36
2016-12-22T00:38:49.761Z,18.36
2016-12-22T00:39:30.453Z,18.37
2016-12-22T00:40:11.104Z,18.42
2016-12-22T00:40:51.825Z,18.39
2016-12-22T00:41:32.473Z,18.47
2016-12-22T00:42:13.145Z,18.37
2016-12-22T00:42:53.762Z,18.4
2016-12-22T00:43:34.441Z,18.43
2016-12-22T00:44:15.171Z,18.39
2016-12-22T00:44:55.824Z,18.4
2016-12-22T00:45:36.494Z,18.36
2016-12-22T00:46:17.142Z,18.44
2016-12-22T00:46:57.796Z,18.33
2016-12-22T00:47:38.442Z,18.36
2016-12-22T00:48:19.136Z,18.42
2016-12-22T00:48:59.789Z,18.39
2016-12-22T00:49:40.429Z,18.39
2016-12-22T00:50:21.107Z,18.37
2016-12-22T00:51:01.848Z,18.39
2016-12-22T00:51:42.411Z,18.42
2016-12-22T00:52:23.051Z,18.34
2016-12-22T00:53:03.689Z,18.44
2016-12-22T00:53:44.335Z,18.29
2016-12-22T00:54:24.987Z,18.42
2016-12-22T00:55:05.650Z,18.4
2016-12-22T00:55:46.295Z,18.29
2016-12-22T00:56:26.934Z,18.33
2016-12-22T00:57:07.580Z,18.43
2016-12-22T00:57:48.360Z,18.27
2016-12-22T00:58:28.997Z,18.31
2016-12-22T00:59:09.637Z,18.37
2016-12-22T00:59:50.277Z,18.25
2016-12-22T01:00:30.913Z,18.25
2016-12-22T01:01:11.549Z,18.42
2016-12-22T01:01:52.189Z,18.22
2016-12-22T01:02:32.849Z,18.27
2016-12-22T01:03:13.582Z,18.28
2016-12-22T01:03:54.220Z,18.36
2016-12-22T01:04:34.854Z,18.31
2016-12-22T01:05:15.508Z,18.31
2016-12-22T01:05:56.181Z,18.27
2016-12-22T01:06:36.818Z,18.37
2016-12-22T01:07:17.488Z,18.34
2016-12-22T01:07:58.159Z,18.31
2016-12-22T01:08:38.814Z,18.29
2016-12-22T01:09:19.448Z,18.27
2016-12-22T01:10:00.085Z,18.24
2016-12-22T01:10:40.742Z,18.34
2016-12-22T01:11:21.464Z,18.25
2016-12-22T01:12:02.102Z,18.27
2016-12-22T01:12:42.758Z,18.25
2016-12-22T01:13:23.502Z,18.27
2016-12-22T01:14:04.288Z,18.28
2016-12-22T01:14:44.931Z,18.22
2016-12-22T01:15:25.564Z,18.29
2016-12-22T01:16:07.068Z,18.25
2016-12-22T01:16:47.761Z,18.25
2016-12-22T01:17:28.405Z,18.33
2016-12-22T01:18:09.070Z,18.28
2016-12-22T01:18:49.756Z,18.27
2016-12-22T01:19:30.408Z,18.24
2016-12-22T01:20:11.061Z,18.24
2016-12-22T01:20:51.699Z,18.28
2016-12-22T01:21:32.331Z,18.24
2016-12-22T01:22:12.983Z,18.27
2016-12-22T01:22:53.637Z,18.24
2016-12-22T01:23:34.278Z,18.17
2016-12-22T01:24:14.931Z,18.24
2016-12-22T01:24:55.565Z,18.25
2016-12-22T01:25:36.212Z,18.27
2016-12-22T01:26:16.851Z,18.24
2016-12-22T01:26:57.500Z,18.22
2016-12-22T01:27:38.149Z,18.24
2016-12-22T01:28:18.786Z,18.24
2016-12-22T01:28:59.462Z,18.19
2016-12-22T01:29:40.100Z,18.13
2016-12-22T01:30:20.758Z,18.13
2016-12-22T01:31:01.407Z,18.22
2016-12-22T01:31:42.061Z,18.18
2016-12-22T01:32:22.712Z,18.21
2016-12-22T01:33:03.424Z,18.1
2016-12-22T01:33:44.120Z,18.18
2016-12-22T01:34:24.718Z,18.21
2016-12-22T01:35:05.360Z,18.18
2016-12-22T01:35:45.997Z,18.19
2016-12-22T01:36:26.633Z,18.19
2016-12-22T01:37:07.310Z,18.13
2016-12-22T01:37:47.953Z,18.19
2016-12-22T01:38:28.587Z,18.13
2016-12-22T01:39:09.234Z,18.21
2016-12-22T01:39:49.881Z,18.17
2016-12-22T01:40:30.524Z,18.18
2016-12-22T01:41:11.232Z,18.13
2016-12-22T01:41:51.868Z,18.21
2016-12-22T01:42:32.509Z,18.19
2016-12-22T01:43:13.151Z,18.24
2016-12-22T01:43:53.782Z,18.24
2016-12-22T01:44:34.421Z,18.12
2016-12-22T01:45:15.124Z,18.19
2016-12-22T01:45:55.767Z,18.18
2016-12-22T01:46:36.430Z,18.18
2016-12-22T01:47:17.078Z,18.07
2016-12-22T01:47:57.729Z,18.18
2016-12-22T01:48:38.381Z,18.18
2016-12-22T01:49:19.027Z,18.18
2016-12-22T01:49:59.695Z,18.17
2016-12-22T01:50:40.342Z,18.18
2016-12-22T01:51:21.029Z,18.06
2016-12-22T01:52:01.659Z,18.15
2016-12-22T01:52:42.299Z,18.09
2016-12-22T01:53:22.946Z,18.17
2016-12-22T01:54:03.676Z,18.1
2016-12-22T01:54:44.345Z,18.18
2016-12-22T01:55:25.005Z,18.18
2016-12-22T01:56:05.629Z,18.12
2016-12-22T01:56:46.269Z,18.15
2016-12-22T01:57:26.920Z,18.21
2016-12-22T01:58:07.560Z,18.15
2016-12-22T01:58:48.208Z,18.1
2016-12-22T01:59:28.850Z,18.07
2016-12-22T02:00:09.488Z,18.1
2016-12-22T02:00:50.252Z,18.17
2016-12-22T02:01:30.889Z,18.17
2016-12-22T02:02:11.537Z,18.18
2016-12-22T02:02:52.184Z,18.13
2016-12-22T02:03:32.822Z,18.19
2016-12-22T02:04:13.500Z,18.12
2016-12-22T02:04:54.152Z,18.13
2016-12-22T02:05:34.804Z,18.1
2016-12-22T02:06:15.451Z,18.18
2016-12-22T02:06:56.093Z,18.15
2016-12-22T02:07:36.811Z,18.12
2016-12-22T02:08:17.475Z,18.15
2016-12-22T02:08:58.126Z,18.09
2016-12-22T02:09:39.321Z,18.22
2016-12-22T02:10:19.960Z,18.18
2016-12-22T02:11:00.710Z,18.12
2016-12-22T02:11:41.367Z,18.09
2016-12-22T02:12:22.011Z,18.07
2016-12-22T02:13:02.738Z,18.18
2016-12-22T02:13:43.387Z,18.03
2016-12-22T02:14:24.045Z,18.19
2016-12-22T02:15:04.730Z,18.13
2016-12-22T02:15:45.386Z,18.17
2016-12-22T02:16:26.024Z,18.15
2016-12-22T02:17:06.659Z,18.1
2016-12-22T02:17:47.304Z,18.13
2016-12-22T02:18:27.941Z,18.13
2016-12-22T02:19:08.576Z,18.17
2016-12-22T02:19:49.231Z,18.06
2016-12-22T02:20:29.901Z,18.12
2016-12-22T02:21:10.539Z,18.13
2016-12-22T02:21:51.274Z,18.1
2016-12-22T02:22:31.912Z,18.1
2016-12-22T02:23:12.593Z,18.02
2016-12-22T02:23:53.242Z,18.18
2016-12-22T02:24:33.880Z,18.13
2016-12-22T02:25:14.515Z,18.07
2016-12-22T02:25:55.160Z,18.09
2016-12-22T02:26:35.802Z,18.1
2016-12-22T02:27:16.445Z,18.09
2016-12-22T02:27:57.103Z,18.07
2016-12-22T02:28:37.736Z,18.09
2016-12-22T02:29:18.376Z,18.07
2016-12-22T02:29:59.721Z,18.13
2016-12-22T02:30:40.364Z,18.07
2016-12-22T02:31:21.007Z,18.04
2016-12-22T02:32:01.653Z,18.07
2016-12-22T02:32:42.301Z,18.1
2016-12-22T02:33:22.957Z,18.12
2016-12-22T02:34:03.610Z,18.06
2016-12-22T02:34:44.245Z,18.06
2016-12-22T02:35:24.880Z,18.07
2016-12-22T02:36:05.508Z,18.1
2016-12-22T02:36:46.179Z,18.07
2016-12-22T02:37:26.885Z,18.07
2016-12-22T02:38:07.579Z,18.07
2016-12-22T02:38:48.242Z,18.12
2016-12-22T02:39:28.880Z,18.04
2016-12-22T02:40:09.537Z,18.06
2016-12-22T02:40:50.197Z,18.1
2016-12-22T02:41:30.861Z,18.07
2016-12-22T02:42:11.503Z,18.04
2016-12-22T02:42:52.149Z,18.07
2016-12-22T02:43:32.789Z,18.04
2016-12-22T02:44:13.562Z,18.03
2016-12-22T02:44:54.207Z,18.07
2016-12-22T02:45:34.853Z,18.07
2016-12-22T02:46:15.518Z,18.1
2016-12-22T02:46:56.180Z,18.06
2016-12-22T02:47:36.830Z,18.1
2016-12-22T02:48:17.534Z,18.02
2016-12-22T02:48:58.179Z,18.09
2016-12-22T02:49:38.826Z,18.06
2016-12-22T02:50:19.528Z,17.99
2016-12-22T02:51:00.833Z,17.99
2016-12-22T02:51:41.461Z,18.03
2016-12-22T02:52:22.094Z,17.95
2016-12-22T02:53:02.739Z,18
2016-12-22T02:53:43.377Z,18
2016-12-22T02:54:24.013Z,17.97
2016-12-22T02:55:04.653Z,17.97
2016-12-22T02:55:45.292Z,18.02
2016-12-22T02:56:26.023Z,18.06
2016-12-22T02:57:06.656Z,17.95
2016-12-22T02:57:47.282Z,18.04
2016-12-22T02:58:27.934Z,18.04
2016-12-22T02:59:08.570Z,18.07
2016-12-22T02:59:49.207Z,17.94
2016-12-22T03:00:29.854Z,17.92
2016-12-22T03:01:10.499Z,17.94
2016-12-22T03:01:51.132Z,17.91
2016-12-22T03:02:31.824Z,17.99
2016-12-22T03:03:12.563Z,18.02
2016-12-22T03:03:53.099Z,17.99
2016-12-22T03:04:33.745Z,18.1
2016-12-22T03:05:14.375Z,17.97
2016-12-22T03:05:55.016Z,18.1
2016-12-22T03:06:35.706Z,17.99
2016-12-22T03:07:16.406Z,18.04
2016-12-22T03:07:57.067Z,17.99
2016-12-22T03:08:37.708Z,17.99
2016-12-22T03:09:18.340Z,18
2016-12-22T03:09:58.977Z,18.03
2016-12-22T03:10:39.659Z,17.92
2016-12-22T03:11:20.292Z,18.03
2016-12-22T03:12:00.953Z,18
2016-12-22T03:12:41.594Z,17.91
2016-12-22T03:13:22.236Z,17.92
2016-12-22T03:14:02.877Z,17.91
2016-12-22T03:14:43.544Z,17.95
2016-12-22T03:15:24.216Z,17.91
2016-12-22T03:16:04.852Z,17.92
2016-12-22T03:16:45.494Z,17.92
2016-12-22T03:17:26.154Z,17.88
2016-12-22T03:18:06.801Z,17.92
2016-12-22T03:18:47.490Z,17.94
2016-12-22T03:19:28.127Z,17.91
2016-12-22T03:20:08.772Z,17.97
2016-12-22T03:20:49.416Z,17.89
2016-12-22T03:21:30.063Z,17.94
2016-12-22T03:22:10.716Z,17.89
2016-12-22T03:22:51.383Z,17.94
2016-12-22T03:23:32.026Z,17.95
2016-12-22T03:24:12.679Z,17.88
2016-12-22T03:24:53.331Z,18.02
2016-12-22T03:25:33.995Z,17.91
2016-12-22T03:26:14.638Z,17.92
2016-12-22T03:26:55.274Z,17.88
2016-12-22T03:27:35.931Z,17.94
2016-12-22T03:28:16.571Z,17.92
2016-12-22T03:28:57.210Z,17.94
2016-12-22T03:29:37.856Z,17.89
2016-12-22T03:30:18.493Z,17.87
2016-12-22T03:30:59.127Z,17.89
2016-12-22T03:31:39.864Z,17.89
2016-12-22T03:32:20.513Z,17.91
2016-12-22T03:33:01.168Z,17.89
2016-12-22T03:33:41.821Z,17.89
2016-12-22T03:34:22.475Z,17.92
2016-12-22T03:35:03.127Z,17.94
2016-12-22T03:35:43.837Z,17.87
2016-12-22T03:36:24.467Z,17.92
2016-12-22T03:37:05.106Z,18
2016-12-22T03:37:45.774Z,17.87
2016-12-22T03:38:26.447Z,17.95
2016-12-22T03:39:07.099Z,17.91
2016-12-22T03:39:47.748Z,17.89
2016-12-22T03:40:28.385Z,17.94
2016-12-22T03:41:09.036Z,17.95
2016-12-22T03:41:49.676Z,17.85
2016-12-22T03:42:30.430Z,17.91
2016-12-22T03:43:11.061Z,17.91
2016-12-22T03:43:51.706Z,17.92
2016-12-22T03:44:32.346Z,17.92
2016-12-22T03:45:13.042Z,17.89
2016-12-22T03:45:53.687Z,17.91
2016-12-22T03:46:34.336Z,17.87
2016-12-22T03:47:14.976Z,17.89
2016-12-22T03:47:55.631Z,17.91
2016-12-22T03:48:36.309Z,17.92
2016-12-22T03:49:16.959Z,17.92
2016-12-22T03:49:57.613Z,17.89
2016-12-22T03:50:38.255Z,17.91
2016-12-22T03:51:18.982Z,17.89
2016-12-22T03:51:59.628Z,17.88
2016-12-22T03:52:40.372Z,17.95
2016-12-22T03:53:21.012Z,17.94
2016-12-22T03:54:01.720Z,17.91
2016-12-22T03:54:42.366Z,17.92
2016-12-22T03:55:23.003Z,17.89
2016-12-22T03:56:03.769Z,17.92
2016-12-22T03:56:44.422Z,17.89
2016-12-22T03:57:25.108Z,17.94
2016-12-22T03:58:05.761Z,17.92
2016-12-22T03:58:46.489Z,17.92
2016-12-22T03:59:27.123Z,17.85
2016-12-22T04:00:07.757Z,17.78
2016-12-22T04:00:48.398Z,17.91
2016-12-22T04:01:29.049Z,17.78
2016-12-22T04:02:09.720Z,17.84
2016-12-22T04:02:50.357Z,17.81
2016-12-22T04:03:30.985Z,17.82
2016-12-22T04:04:11.619Z,17.78
2016-12-22T04:04:52.274Z,17.76
2016-12-22T04:05:32.913Z,17.82
2016-12-22T04:06:13.568Z,17.81
2016-12-22T04:06:54.284Z,17.84
2016-12-22T04:07:34.924Z,17.85
2016-12-22T04:08:15.560Z,17.81
2016-12-22T04:08:56.206Z,17.87
2016-12-22T04:09:36.851Z,17.82
2016-12-22T04:10:17.490Z,17.78
2016-12-22T04:10:58.131Z,17.82
2016-12-22T04:11:38.818Z,17.81
2016-12-22T04:12:19.491Z,17.82
2016-12-22T04:13:00.123Z,17.87
2016-12-22T04:13:40.833Z,17.81
2016-12-22T04:14:21.471Z,17.81
2016-12-22T04:15:02.158Z,17.88
2016-12-22T04:15:42.799Z,17.85
2016-12-22T04:16:23.432Z,17.78
2016-12-22T04:17:04.168Z,17.88
2016-12-22T04:17:44.822Z,17.73
2016-12-22T04:18:25.454Z,17.84
2016-12-22T04:19:06.089Z,17.82
2016-12-22T04:19:46.727Z,17.76
2016-12-22T04:20:27.421Z,17.85
2016-12-22T04:21:08.041Z,17.79
2016-12-22T04:21:48.682Z,17.76
2016-12-22T04:22:29.332Z,17.81
2016-12-22T04:23:09.989Z,17.81
2016-12-22T04:23:50.645Z,17.78
2016-12-22T04:24:31.353Z,17.85
2016-12-22T04:25:12.005Z,17.84
2016-12-22T04:25:52.662Z,17.84
2016-12-22T04:26:33.397Z,17.87
2016-12-22T04:27:14.033Z,17.84
2016-12-22T04:27:54.679Z,17.76
2016-12-22T04:28:35.316Z,17.76
2016-12-22T04:29:15.971Z,17.74
2016-12-22T04:29:56.641Z,17.73
2016-12-22T04:30:37.328Z,17.71
2016-12-22T04:31:17.964Z,17.76
2016-12-22T04:31:58.599Z,17.73
2016-12-22T04:32:39.235Z,17.84
2016-12-22T04:33:19.941Z,17.71
2016-12-22T04:34:00.635Z,17.82
2016-12-22T04:34:41.383Z,17.7
2016-12-22T04:35:22.019Z,17.7
2016-12-22T04:36:02.666Z,17.74
2016-12-22T04:36:43.410Z,17.78
2016-12-22T04:37:24.138Z,17.76
2016-12-22T04:38:04.857Z,17.73
2016-12-22T04:38:45.486Z,17.71
2016-12-22T04:39:26.178Z,17.78
2016-12-22T04:40:06.823Z,17.7
2016-12-22T04:40:47.470Z,17.76
2016-12-22T04:41:28.129Z,17.76
2016-12-22T04:42:08.928Z,17.73
2016-12-22T04:42:49.560Z,17.78
2016-12-22T04:43:30.201Z,17.73
2016-12-22T04:44:10.861Z,17.81
2016-12-22T04:44:51.549Z,17.76
2016-12-22T04:45:32.181Z,17.76
2016-12-22T04:46:12.811Z,17.82
2016-12-22T04:46:53.454Z,17.67
2016-12-22T04:47:34.087Z,17.71
2016-12-22T04:48:14.781Z,17.74
2016-12-22T04:48:55.469Z,17.69
2016-12-22T04:49:36.105Z,17.73
2016-12-22T04:50:16.748Z,17.73
2016-12-22T04:50:57.385Z,17.76
2016-12-22T04:51:38.024Z,17.7
2016-12-22T04:52:18.722Z,17.79
2016-12-22T04:52:59.369Z,17.79
2016-12-22T04:53:40.004Z,17.76
2016-12-22T04:54:20.640Z,17.81
2016-12-22T04:55:01.318Z,17.73
2016-12-22T04:55:41.967Z,17.74
2016-12-22T04:56:22.595Z,17.82
2016-12-22T04:57:03.240Z,17.79
2016-12-22T04:57:43.868Z,17.62
2016-12-22T04:58:24.519Z,17.64
2016-12-22T04:59:05.228Z,17.78
2016-12-22T04:59:45.889Z,17.71
2016-12-22T05:00:26.532Z,17.78
2016-12-22T05:01:07.178Z,17.73
2016-12-22T05:01:47.810Z,17.76
2016-12-22T05:02:28.469Z,17.74
2016-12-22T05:03:09.175Z,17.74
2016-12-22T05:03:49.811Z,17.76
2016-12-22T05:04:30.465Z,17.69
2016-12-22T05:05:11.098Z,17.66
2016-12-22T05:05:51.830Z,17.71
2016-12-22T05:06:32.473Z,17.71
2016-12-22T05:07:13.110Z,17.71
2016-12-22T05:07:53.811Z,17.7
2016-12-22T05:08:34.447Z,17.62
2016-12-22T05:09:15.077Z,17.66
2016-12-22T05:09:55.714Z,17.59
2016-12-22T05:10:36.355Z,17.7
2016-12-22T05:11:16.986Z,17.71
2016-12-22T05:11:57.626Z,17.62
2016-12-22T05:12:38.261Z,17.62
2016-12-22T05:13:18.927Z,17.66
2016-12-22T05:13:59.572Z,17.74
2016-12-22T05:14:40.214Z,17.63
2016-12-22T05:15:20.857Z,17.59
2016-12-22T05:16:01.563Z,17.64
2016-12-22T05:16:42.269Z,17.55
2016-12-22T05:17:22.922Z,17.66
2016-12-22T05:18:03.587Z,17.64
2016-12-22T05:18:44.321Z,17.59
2016-12-22T05:19:24.956Z,17.63
2016-12-22T05:20:05.598Z,17.64
2016-12-22T05:20:46.337Z,17.59
2016-12-22T05:21:27.007Z,17.69
2016-12-22T05:22:07.657Z,17.59
2016-12-22T05:22:48.315Z,17.59
2016-12-22T05:23:28.953Z,17.59
2016-12-22T05:24:09.601Z,17.63
2016-12-22T05:24:50.269Z,17.59
2016-12-22T05:25:30.956Z,17.59
2016-12-22T05:26:11.592Z,17.55
2016-12-22T05:26:52.227Z,17.57
2016-12-22T05:27:32.869Z,17.66
2016-12-22T05:28:13.501Z,17.55
2016-12-22T05:28:54.170Z,17.64
2016-12-22T05:29:34.803Z,17.63
2016-12-22T05:30:15.437Z,17.55
2016-12-22T05:30:56.063Z,17.64
2016-12-22T05:31:36.792Z,17.64
2016-12-22T05:32:17.428Z,17.66
2016-12-22T05:32:58.063Z,17.66
2016-12-22T05:33:38.702Z,17.67
2016-12-22T05:34:19.342Z,17.66
2016-12-22T05:35:00.007Z,17.59
2016-12-22T05:35:40.678Z,17.66
2016-12-22T05:36:21.311Z,17.64
2016-12-22T05:37:01.939Z,17.64
2016-12-22T05:37:42.574Z,17.66
2016-12-22T05:38:23.211Z,17.66
2016-12-22T05:39:04.088Z,17.66
2016-12-22T05:39:44.728Z,17.67
2016-12-22T05:40:25.361Z,17.57
2016-12-22T05:41:05.999Z,17.55
2016-12-22T05:41:46.634Z,17.54
2016-12-22T05:42:27.365Z,17.59
2016-12-22T05:43:07.999Z,17.54
2016-12-22T05:43:48.763Z,17.54
2016-12-22T05:44:29.393Z,17.57
2016-12-22T05:45:10.103Z,17.55
2016-12-22T05:45:50.792Z,17.63
2016-12-22T05:46:31.410Z,17.63
2016-12-22T05:47:12.042Z,17.55
2016-12-22T05:47:52.671Z,17.54
2016-12-22T05:48:33.310Z,17.55
2016-12-22T05:49:14.004Z,17.57
2016-12-22T05:49:54.633Z,17.54
2016-12-22T05:50:35.285Z,17.53
2016-12-22T05:51:15.981Z,17.51
2016-12-22T05:51:56.628Z,17.55
2016-12-22T05:52:37.260Z,17.54
2016-12-22T05:53:17.893Z,17.55
2016-12-22T05:53:58.534Z,17.63
2016-12-22T05:54:39.171Z,17.54
2016-12-22T05:55:19.840Z,17.62
2016-12-22T05:56:00.488Z,17.53
2016-12-22T05:56:41.117Z,17.54
2016-12-22T05:57:21.791Z,17.63
2016-12-22T05:58:02.425Z,17.59
2016-12-22T05:58:43.066Z,17.59
2016-12-22T05:59:23.772Z,17.55
2016-12-22T06:00:04.423Z,17.57
2016-12-22T06:00:45.054Z,17.57
2016-12-22T06:01:25.692Z,17.53
2016-12-22T06:02:06.385Z,17.55
2016-12-22T06:02:47.019Z,17.55
2016-12-22T06:03:27.672Z,17.53
2016-12-22T06:04:08.331Z,17.55
2016-12-22T06:04:48.965Z,17.57
2016-12-22T06:05:29.704Z,17.57
2016-12-22T06:06:10.359Z,17.55
2016-12-22T06:06:50.988Z,17.54
2016-12-22T06:07:31.618Z,17.57
2016-12-22T06:08:12.312Z,17.54
2016-12-22T06:08:52.962Z,17.51
2016-12-22T06:09:33.629Z,17.54
2016-12-22T06:10:14.271Z,17.57
2016-12-22T06:10:54.913Z,17.54
2016-12-22T06:11:35.588Z,17.5
2016-12-22T06:12:16.321Z,17.55
2016-12-22T06:12:56.957Z,17.54
2016-12-22T06:13:37.586Z,17.59
2016-12-22T06:14:18.226Z,17.5
2016-12-22T06:14:58.926Z,17.54
2016-12-22T06:15:39.563Z,17.47
2016-12-22T06:16:20.259Z,17.46
2016-12-22T06:17:00.899Z,17.44
2016-12-22T06:17:41.548Z,17.5
2016-12-22T06:18:22.202Z,17.51
2016-12-22T06:19:02.855Z,17.5
2016-12-22T06:19:43.552Z,17.48
2016-12-22T06:20:24.182Z,17.46
2016-12-22T06:21:04.819Z,17.5
2016-12-22T06:21:45.472Z,17.48
2016-12-22T06:22:26.126Z,17.48
2016-12-22T06:23:06.785Z,17.5
2016-12-22T06:23:47.403Z,17.63
2016-12-22T06:24:28.035Z,17.5
2016-12-22T06:25:08.660Z,17.47
2016-12-22T06:25:49.301Z,17.57
2016-12-22T06:26:29.989Z,17.53
2016-12-22T06:27:10.641Z,17.55
2016-12-22T06:27:51.292Z,17.53
2016-12-22T06:28:31.929Z,17.47
2016-12-22T06:29:13.535Z,17.46
2016-12-22T06:29:54.178Z,17.53
2016-12-22T06:30:34.877Z,17.47
2016-12-22T06:31:15.518Z,17.48
2016-12-22T06:31:56.160Z,17.5
2016-12-22T06:32:36.789Z,17.57
2016-12-22T06:33:17.435Z,17.53
2016-12-22T06:33:58.092Z,17.43
2016-12-22T06:34:38.734Z,17.53
2016-12-22T06:35:19.407Z,17.44
2016-12-22T06:36:00.051Z,17.46
2016-12-22T06:36:40.707Z,17.44
2016-12-22T06:37:21.357Z,17.44
2016-12-22T06:38:02.005Z,17.46
2016-12-22T06:38:42.645Z,17.5
2016-12-22T06:39:23.288Z,17.47
2016-12-22T06:40:04.122Z,17.46
2016-12-22T06:40:44.772Z,17.47
2016-12-22T06:41:25.430Z,17.47
2016-12-22T06:42:06.094Z,17.51
2016-12-22T06:42:46.728Z,17.48
2016-12-22T06:43:27.364Z,17.54
2016-12-22T06:44:07.997Z,17.47
2016-12-22T06:44:48.699Z,17.53
2016-12-22T06:45:29.343Z,17.47
2016-12-22T06:46:10.046Z,17.44
2016-12-22T06:46:50.686Z,17.47
2016-12-22T06:47:31.330Z,17.48
2016-12-22T06:48:11.965Z,17.51
2016-12-22T06:48:52.603Z,17.51
2016-12-22T06:49:33.246Z,17.51
2016-12-22T06:50:13.912Z,17.47
2016-12-22T06:50:54.564Z,17.46
2016-12-22T06:51:35.191Z,17.46
2016-12-22T06:52:15.825Z,17.48
2016-12-22T06:52:56.573Z,17.5
2016-12-22T06:53:37.207Z,17.46
2016-12-22T06:54:17.850Z,17.5
2016-12-22T06:54:58.613Z,17.51
2016-12-22T06:55:39.282Z,17.43
2016-12-22T06:56:19.908Z,17.47
2016-12-22T06:57:00.543Z,17.47
2016-12-22T06:57:41.189Z,17.47
2016-12-22T06:58:21.843Z,17.46
2016-12-22T06:59:02.563Z,17.5
2016-12-22T06:59:43.293Z,17.47
2016-12-22T07:00:23.925Z,17.5
2016-12-22T07:01:04.624Z,17.46
2016-12-22T07:01:45.277Z,17.43
2016-12-22T07:02:25.883Z,17.44
2016-12-22T07:03:06.524Z,17.43
2016-12-22T07:03:47.157Z,17.46
2016-12-22T07:04:27.806Z,17.48
2016-12-22T07:05:08.435Z,17.43
2016-12-22T07:05:49.078Z,17.44
2016-12-22T07:06:29.719Z,17.41
2016-12-22T07:07:10.358Z,17.47
2016-12-22T07:07:51.019Z,17.4
2016-12-22T07:08:31.695Z,17.4
2016-12-22T07:09:12.308Z,17.43
2016-12-22T07:09:52.942Z,17.4
2016-12-22T07:10:33.586Z,17.43
2016-12-22T07:11:14.219Z,17.47
2016-12-22T07:11:55.676Z,17.5
2016-12-22T07:12:36.329Z,17.47
2016-12-22T07:13:16.965Z,17.47
2016-12-22T07:13:57.675Z,17.46
2016-12-22T07:14:38.309Z,17.47
2016-12-22T07:15:18.945Z,17.4
2016-12-22T07:15:59.594Z,17.4
2016-12-22T07:16:40.230Z,17.38
2016-12-22T07:17:20.971Z,17.38
2016-12-22T07:18:01.615Z,17.38
2016-12-22T07:18:42.254Z,17.41
2016-12-22T07:19:22.900Z,17.41
2016-12-22T07:20:03.593Z,17.43
2016-12-22T07:20:44.817Z,17.36
2016-12-22T07:21:25.451Z,17.46
2016-12-22T07:22:06.083Z,17.51
2016-12-22T07:22:46.712Z,17.46
2016-12-22T07:23:27.347Z,17.41
2016-12-22T07:24:07.998Z,17.46
2016-12-22T07:24:48.745Z,17.33
2016-12-22T07:25:29.390Z,17.38
2016-12-22T07:26:10.109Z,17.38
2016-12-22T07:26:50.760Z,17.44
2016-12-22T07:27:31.409Z,17.48
2016-12-22T07:28:12.112Z,17.38
2016-12-22T07:28:52.749Z,17.44
2016-12-22T07:29:33.381Z,17.38
2016-12-22T07:30:14.021Z,17.47
2016-12-22T07:30:54.655Z,17.41
2016-12-22T07:31:35.288Z,17.5
2016-12-22T07:32:15.925Z,17.4
2016-12-22T07:32:56.557Z,17.46
2016-12-22T07:33:37.190Z,17.43
2016-12-22T07:34:17.838Z,17.41
2016-12-22T07:34:58.487Z,17.4
2016-12-22T07:35:39.123Z,17.44
2016-12-22T07:36:19.760Z,17.41
2016-12-22T07:37:00.394Z,17.38
2016-12-22T07:37:41.049Z,17.41
2016-12-22T07:38:21.751Z,17.41
2016-12-22T07:39:02.387Z,17.38
2016-12-22T07:39:43.043Z,17.41
2016-12-22T07:40:23.674Z,17.46
2016-12-22T07:41:04.312Z,17.41
2016-12-22T07:41:44.962Z,17.4
2016-12-22T07:42:25.611Z,17.36
2016-12-22T07:43:06.240Z,17.38
2016-12-22T07:43:46.881Z,17.44
2016-12-22T07:44:27.584Z,17.43
2016-12-22T07:45:08.231Z,17.43
2016-12-22T07:45:48.870Z,17.35
2016-12-22T07:46:29.504Z,17.4
2016-12-22T07:47:10.166Z,17.4
2016-12-22T07:47:50.803Z,17.4
2016-12-22T07:48:31.446Z,17.4
2016-12-22T07:49:12.081Z,17.44
2016-12-22T07:49:52.731Z,17.41
2016-12-22T07:50:33.357Z,17.47
2016-12-22T07:51:14.067Z,17.38
2016-12-22T07:51:54.721Z,17.47
2016-12-22T07:52:35.353Z,17.43
2016-12-22T07:53:16.036Z,17.44
2016-12-22T07:53:56.670Z,17.44
2016-12-22T07:54:37.305Z,17.38
2016-12-22T07:55:18.056Z,17.43
2016-12-22T07:55:58.703Z,17.36
2016-12-22T07:56:39.423Z,17.47
2016-12-22T07:57:20.065Z,17.41
2016-12-22T07:58:00.757Z,17.4
2016-12-22T07:58:41.419Z,17.38
2016-12-22T07:59:22.166Z,17.4
2016-12-22T08:00:02.804Z,17.4
2016-12-22T08:00:43.431Z,17.3
2016-12-22T08:01:24.066Z,17.4
2016-12-22T08:02:04.702Z,17.38
2016-12-22T08:02:45.337Z,17.4
2016-12-22T08:03:25.987Z,17.41
2016-12-22T08:04:06.659Z,17.38
2016-12-22T08:04:47.299Z,17.4
2016-12-22T08:05:28.053Z,17.36
2016-12-22T08:06:08.687Z,17.32
2016-12-22T08:06:49.319Z,17.38
2016-12-22T08:07:29.956Z,17.46
2016-12-22T08:08:10.622Z,17.35
2016-12-22T08:08:51.306Z,17.33
2016-12-22T08:09:31.882Z,17.4
2016-12-22T08:10:12.591Z,17.43
2016-12-22T08:10:53.241Z,17.35
2016-12-22T08:11:33.887Z,17.36
2016-12-22T08:12:14.527Z,17.38
2016-12-22T08:12:55.844Z,17.4
2016-12-22T08:13:36.482Z,17.41
2016-12-22T08:14:17.128Z,17.3
2016-12-22T08:14:57.767Z,17.41
2016-12-22T08:15:38.415Z,17.4
2016-12-22T08:16:19.109Z,17.44
2016-12-22T08:16:59.746Z,17.43
2016-12-22T08:17:40.388Z,17.33
2016-12-22T08:18:21.031Z,17.4
2016-12-22T08:19:01.684Z,17.32
2016-12-22T08:19:42.338Z,17.43
2016-12-22T08:20:22.992Z,17.38
2016-12-22T08:21:03.640Z,17.43
2016-12-22T08:21:44.354Z,17.47
2016-12-22T08:22:24.999Z,17.41
2016-12-22T08:23:05.639Z,17.44
2016-12-22T08:23:46.278Z,17.3
2016-12-22T08:24:26.922Z,17.33
2016-12-22T08:25:07.560Z,17.38
2016-12-22T08:25:48.239Z,17.38
2016-12-22T08:26:28.877Z,17.43
2016-12-22T08:27:09.544Z,17.4
2016-12-22T08:27:50.234Z,17.3
2016-12-22T08:28:30.875Z,17.32
2016-12-22T08:29:11.509Z,17.33
2016-12-22T08:29:52.341Z,17.47
2016-12-22T08:30:33.008Z,17.43
2016-12-22T08:31:13.663Z,17.33
2016-12-22T08:31:54.320Z,17.33
2016-12-22T08:32:34.966Z,17.32
2016-12-22T08:33:15.601Z,17.35
2016-12-22T08:33:56.243Z,17.4
2016-12-22T08:34:36.904Z,17.36
2016-12-22T08:35:17.539Z,17.46
2016-12-22T08:35:58.174Z,17.41
2016-12-22T08:36:38.811Z,17.32
2016-12-22T08:37:19.446Z,17.35
2016-12-22T08:38:00.080Z,17.32
2016-12-22T08:38:40.722Z,17.32
2016-12-22T08:39:21.367Z,17.29
2016-12-22T08:40:02.022Z,17.3
2016-12-22T08:40:42.667Z,17.33
2016-12-22T08:41:23.310Z,17.4
2016-12-22T08:42:03.942Z,17.35
2016-12-22T08:42:44.587Z,17.46
2016-12-22T08:43:25.230Z,17.3
2016-12-22T08:44:05.866Z,17.35
2016-12-22T08:44:46.512Z,17.33
2016-12-22T08:45:27.155Z,17.32